sensor_id;sensor_type;location;lat;lon;timestamp;temperature;humidity
71128;SHT30;59249;59.736;30.568;2022-10-15T00:01:50;9.87;82.93
71128;SHT30;59249;59.736;30.568;2022-10-15T00:04:19;9.83;83.01
71128;SHT30;59249;59.736;30.568;2022-10-15T00:06:48;9.89;82.91
71128;SHT30;59249;59.736;30.568;2022-10-15T00:09:17;9.87;83.03
71128;SHT30;59249;59.736;30.568;2022-10-15T00:11:46;9.90;82.89
71128;SHT30;59249;59.736;30.568;2022-10-15T00:14:16;9.92;82.96
71128;SHT30;59249;59.736;30.568;2022-10-15T00:16:45;9.88;82.97
71128;SHT30;59249;59.736;30.568;2022-10-15T00:19:14;9.90;82.88
71128;SHT30;59249;59.736;30.568;2022-10-15T00:21:43;9.88;82.92
71128;SHT30;59249;59.736;30.568;2022-10-15T00:24:14;9.92;82.84
71128;SHT30;59249;59.736;30.568;2022-10-15T00:26:44;9.94;82.72
71128;SHT30;59249;59.736;30.568;2022-10-15T00:29:13;9.94;82.66
71128;SHT30;59249;59.736;30.568;2022-10-15T00:31:43;9.87;82.86
71128;SHT30;59249;59.736;30.568;2022-10-15T00:34:13;9.96;82.80
71128;SHT30;59249;59.736;30.568;2022-10-15T00:36:41;9.97;82.82
71128;SHT30;59249;59.736;30.568;2022-10-15T00:39:10;9.94;82.84
71128;SHT30;59249;59.736;30.568;2022-10-15T00:41:43;9.93;82.79
71128;SHT30;59249;59.736;30.568;2022-10-15T00:44:49;9.91;82.83
71128;SHT30;59249;59.736;30.568;2022-10-15T00:47:29;9.98;82.78
71128;SHT30;59249;59.736;30.568;2022-10-15T00:50:06;9.94;82.59
71128;SHT30;59249;59.736;30.568;2022-10-15T00:52:45;9.92;82.70
71128;SHT30;59249;59.736;30.568;2022-10-15T00:55:23;9.93;82.69
71128;SHT30;59249;59.736;30.568;2022-10-15T00:58:00;9.98;82.75
71128;SHT30;59249;59.736;30.568;2022-10-15T01:00:30;9.95;82.73
71128;SHT30;59249;59.736;30.568;2022-10-15T01:03:02;10.01;82.83
71128;SHT30;59249;59.736;30.568;2022-10-15T01:05:33;10.01;82.68
71128;SHT30;59249;59.736;30.568;2022-10-15T01:08:03;10.01;82.77
71128;SHT30;59249;59.736;30.568;2022-10-15T01:10:41;10.04;82.90
71128;SHT30;59249;59.736;30.568;2022-10-15T01:13:21;10.04;82.89
71128;SHT30;59249;59.736;30.568;2022-10-15T01:16:03;10.00;82.96
71128;SHT30;59249;59.736;30.568;2022-10-15T01:18:41;10.01;83.00
71128;SHT30;59249;59.736;30.568;2022-10-15T01:21:18;10.01;82.98
71128;SHT30;59249;59.736;30.568;2022-10-15T01:24:41;10.01;83.34
71128;SHT30;59249;59.736;30.568;2022-10-15T01:27:41;9.89;83.41
71128;SHT30;59249;59.736;30.568;2022-10-15T01:30:42;9.89;83.51
71128;SHT30;59249;59.736;30.568;2022-10-15T01:33:26;9.86;83.80
71128;SHT30;59249;59.736;30.568;2022-10-15T01:36:05;9.78;83.86
71128;SHT30;59249;59.736;30.568;2022-10-15T01:38:48;9.82;83.77
71128;SHT30;59249;59.736;30.568;2022-10-15T01:41:27;9.82;84.14
71128;SHT30;59249;59.736;30.568;2022-10-15T01:44:04;9.90;83.91
71128;SHT30;59249;59.736;30.568;2022-10-15T01:46:54;9.90;83.88
71128;SHT30;59249;59.736;30.568;2022-10-15T01:49:43;9.90;83.83
71128;SHT30;59249;59.736;30.568;2022-10-15T01:52:17;9.89;83.75
71128;SHT30;59249;59.736;30.568;2022-10-15T01:54:51;9.87;83.94
71128;SHT30;59249;59.736;30.568;2022-10-15T01:57:26;9.82;83.91
71128;SHT30;59249;59.736;30.568;2022-10-15T01:59:58;9.77;83.92
71128;SHT30;59249;59.736;30.568;2022-10-15T02:02:41;9.86;83.79
71128;SHT30;59249;59.736;30.568;2022-10-15T02:05:16;9.78;83.87
71128;SHT30;59249;59.736;30.568;2022-10-15T02:08:00;9.81;83.81
71128;SHT30;59249;59.736;30.568;2022-10-15T02:10:48;9.78;83.81
71128;SHT30;59249;59.736;30.568;2022-10-15T02:13:29;9.77;83.79
71128;SHT30;59249;59.736;30.568;2022-10-15T02:16:27;9.74;83.89
71128;SHT30;59249;59.736;30.568;2022-10-15T02:19:06;9.71;83.86
71128;SHT30;59249;59.736;30.568;2022-10-15T02:21:42;9.70;84.00
71128;SHT30;59249;59.736;30.568;2022-10-15T02:24:18;9.73;84.05
71128;SHT30;59249;59.736;30.568;2022-10-15T02:26:51;9.68;84.05
71128;SHT30;59249;59.736;30.568;2022-10-15T02:29:25;9.66;84.29
71128;SHT30;59249;59.736;30.568;2022-10-15T02:31:59;9.62;84.30
71128;SHT30;59249;59.736;30.568;2022-10-15T02:34:34;9.59;84.55
71128;SHT30;59249;59.736;30.568;2022-10-15T02:37:07;9.57;84.65
71128;SHT30;59249;59.736;30.568;2022-10-15T02:39:36;9.57;84.70
71128;SHT30;59249;59.736;30.568;2022-10-15T02:42:05;9.57;84.64
71128;SHT30;59249;59.736;30.568;2022-10-15T02:44:34;9.59;84.57
71128;SHT30;59249;59.736;30.568;2022-10-15T02:47:03;9.59;84.41
71128;SHT30;59249;59.736;30.568;2022-10-15T02:49:33;9.49;84.86
71128;SHT30;59249;59.736;30.568;2022-10-15T02:52:03;9.52;85.13
71128;SHT30;59249;59.736;30.568;2022-10-15T02:54:32;9.52;85.34
71128;SHT30;59249;59.736;30.568;2022-10-15T02:57:01;9.51;85.42
71128;SHT30;59249;59.736;30.568;2022-10-15T02:59:30;9.55;85.44
71128;SHT30;59249;59.736;30.568;2022-10-15T03:02:00;9.50;85.32
71128;SHT30;59249;59.736;30.568;2022-10-15T03:04:30;9.57;85.23
71128;SHT30;59249;59.736;30.568;2022-10-15T03:07:02;9.51;85.01
71128;SHT30;59249;59.736;30.568;2022-10-15T03:09:31;9.44;85.20
71128;SHT30;59249;59.736;30.568;2022-10-15T03:12:03;9.45;85.11
71128;SHT30;59249;59.736;30.568;2022-10-15T03:14:33;9.42;85.06
71128;SHT30;59249;59.736;30.568;2022-10-15T03:17:01;9.47;85.06
71128;SHT30;59249;59.736;30.568;2022-10-15T03:19:30;9.46;85.13
71128;SHT30;59249;59.736;30.568;2022-10-15T03:22:01;9.40;85.02
71128;SHT30;59249;59.736;30.568;2022-10-15T03:24:39;9.37;84.98
71128;SHT30;59249;59.736;30.568;2022-10-15T03:27:08;9.34;85.02
71128;SHT30;59249;59.736;30.568;2022-10-15T03:29:37;9.34;85.10
71128;SHT30;59249;59.736;30.568;2022-10-15T03:32:07;9.32;85.19
71128;SHT30;59249;59.736;30.568;2022-10-15T03:34:36;9.36;84.96
71128;SHT30;59249;59.736;30.568;2022-10-15T03:37:06;9.38;85.01
71128;SHT30;59249;59.736;30.568;2022-10-15T03:39:36;9.35;85.01
71128;SHT30;59249;59.736;30.568;2022-10-15T03:42:07;9.24;85.09
71128;SHT30;59249;59.736;30.568;2022-10-15T03:44:44;9.27;84.96
71128;SHT30;59249;59.736;30.568;2022-10-15T03:47:17;9.23;85.02
71128;SHT30;59249;59.736;30.568;2022-10-15T03:49:48;9.22;84.97
71128;SHT30;59249;59.736;30.568;2022-10-15T03:52:18;9.24;84.79
71128;SHT30;59249;59.736;30.568;2022-10-15T03:54:48;9.20;84.84
71128;SHT30;59249;59.736;30.568;2022-10-15T03:57:19;9.19;84.91
71128;SHT30;59249;59.736;30.568;2022-10-15T03:59:53;9.12;85.02
71128;SHT30;59249;59.736;30.568;2022-10-15T04:02:24;9.15;84.94
71128;SHT30;59249;59.736;30.568;2022-10-15T04:04:55;9.12;85.03
71128;SHT30;59249;59.736;30.568;2022-10-15T04:07:26;9.19;84.93
71128;SHT30;59249;59.736;30.568;2022-10-15T04:09:56;9.16;84.79
71128;SHT30;59249;59.736;30.568;2022-10-15T04:12:30;9.22;84.74
71128;SHT30;59249;59.736;30.568;2022-10-15T04:14:59;9.18;84.78
71128;SHT30;59249;59.736;30.568;2022-10-15T04:17:29;9.17;84.82
71128;SHT30;59249;59.736;30.568;2022-10-15T04:19:58;9.19;84.76
71128;SHT30;59249;59.736;30.568;2022-10-15T04:22:28;9.17;84.82
71128;SHT30;59249;59.736;30.568;2022-10-15T04:25:00;9.15;84.87
71128;SHT30;59249;59.736;30.568;2022-10-15T04:27:30;9.13;84.68
71128;SHT30;59249;59.736;30.568;2022-10-15T04:30:12;9.06;84.73
71128;SHT30;59249;59.736;30.568;2022-10-15T04:32:50;9.11;84.76
71128;SHT30;59249;59.736;30.568;2022-10-15T04:35:19;9.08;84.85
71128;SHT30;59249;59.736;30.568;2022-10-15T04:38:04;9.03;84.96
71128;SHT30;59249;59.736;30.568;2022-10-15T04:41:12;9.05;84.92
71128;SHT30;59249;59.736;30.568;2022-10-15T04:43:57;9.08;84.96
71128;SHT30;59249;59.736;30.568;2022-10-15T04:46:28;9.03;85.12
71128;SHT30;59249;59.736;30.568;2022-10-15T04:49:01;9.09;84.91
71128;SHT30;59249;59.736;30.568;2022-10-15T04:51:31;9.10;84.90
71128;SHT30;59249;59.736;30.568;2022-10-15T04:54:11;9.04;85.06
71128;SHT30;59249;59.736;30.568;2022-10-15T04:56:55;9.06;84.99
71128;SHT30;59249;59.736;30.568;2022-10-15T04:59:24;9.10;84.86
71128;SHT30;59249;59.736;30.568;2022-10-15T05:02:24;9.13;84.83
71128;SHT30;59249;59.736;30.568;2022-10-15T05:05:07;9.14;84.91
71128;SHT30;59249;59.736;30.568;2022-10-15T05:07:45;9.09;84.71
71128;SHT30;59249;59.736;30.568;2022-10-15T05:10:16;9.07;84.66
71128;SHT30;59249;59.736;30.568;2022-10-15T05:12:46;9.11;84.70
71128;SHT30;59249;59.736;30.568;2022-10-15T05:15:28;9.09;84.97
71128;SHT30;59249;59.736;30.568;2022-10-15T05:17:57;9.19;84.81
71128;SHT30;59249;59.736;30.568;2022-10-15T05:20:34;9.20;84.73
71128;SHT30;59249;59.736;30.568;2022-10-15T05:23:03;9.19;84.74
71128;SHT30;59249;59.736;30.568;2022-10-15T05:25:36;9.22;84.51
71128;SHT30;59249;59.736;30.568;2022-10-15T05:28:05;9.18;84.53
71128;SHT30;59249;59.736;30.568;2022-10-15T05:30:34;9.18;84.58
71128;SHT30;59249;59.736;30.568;2022-10-15T05:33:03;9.23;84.48
71128;SHT30;59249;59.736;30.568;2022-10-15T05:35:32;9.17;84.49
71128;SHT30;59249;59.736;30.568;2022-10-15T05:38:03;9.27;84.40
71128;SHT30;59249;59.736;30.568;2022-10-15T05:40:32;9.22;84.37
71128;SHT30;59249;59.736;30.568;2022-10-15T05:43:08;9.24;84.50
71128;SHT30;59249;59.736;30.568;2022-10-15T05:45:37;9.27;84.50
71128;SHT30;59249;59.736;30.568;2022-10-15T05:48:06;9.30;84.12
71128;SHT30;59249;59.736;30.568;2022-10-15T05:50:35;9.31;84.12
71128;SHT30;59249;59.736;30.568;2022-10-15T05:53:08;9.30;84.14
71128;SHT30;59249;59.736;30.568;2022-10-15T05:55:52;9.39;84.10
71128;SHT30;59249;59.736;30.568;2022-10-15T05:58:28;9.44;84.03
71128;SHT30;59249;59.736;30.568;2022-10-15T06:01:05;9.47;83.99
71128;SHT30;59249;59.736;30.568;2022-10-15T06:03:39;9.50;83.82
71128;SHT30;59249;59.736;30.568;2022-10-15T06:06:17;9.51;83.67
71128;SHT30;59249;59.736;30.568;2022-10-15T06:08:47;9.53;83.31
71128;SHT30;59249;59.736;30.568;2022-10-15T06:11:18;9.58;83.27
71128;SHT30;59249;59.736;30.568;2022-10-15T06:13:48;9.60;83.22
71128;SHT30;59249;59.736;30.568;2022-10-15T06:16:17;9.63;83.06
71128;SHT30;59249;59.736;30.568;2022-10-15T06:18:51;9.75;83.08
71128;SHT30;59249;59.736;30.568;2022-10-15T06:21:20;9.76;82.96
71128;SHT30;59249;59.736;30.568;2022-10-15T06:23:49;9.85;82.83
71128;SHT30;59249;59.736;30.568;2022-10-15T06:26:18;9.89;82.81
71128;SHT30;59249;59.736;30.568;2022-10-15T06:28:56;10.05;82.81
71128;SHT30;59249;59.736;30.568;2022-10-15T06:31:25;10.16;82.71
71128;SHT30;59249;59.736;30.568;2022-10-15T06:33:54;10.30;82.39
71128;SHT30;59249;59.736;30.568;2022-10-15T06:36:24;10.32;82.11
71128;SHT30;59249;59.736;30.568;2022-10-15T06:38:53;10.43;81.99
71128;SHT30;59249;59.736;30.568;2022-10-15T06:41:22;10.60;81.70
71128;SHT30;59249;59.736;30.568;2022-10-15T06:43:51;10.66;81.57
71128;SHT30;59249;59.736;30.568;2022-10-15T06:46:22;10.67;81.36
71128;SHT30;59249;59.736;30.568;2022-10-15T06:48:52;10.72;81.23
71128;SHT30;59249;59.736;30.568;2022-10-15T06:51:22;10.76;81.02
71128;SHT30;59249;59.736;30.568;2022-10-15T06:53:51;10.90;81.07
71128;SHT30;59249;59.736;30.568;2022-10-15T06:56:20;10.91;80.69
71128;SHT30;59249;59.736;30.568;2022-10-15T06:58:49;10.95;80.52
71128;SHT30;59249;59.736;30.568;2022-10-15T07:01:18;10.87;80.63
71128;SHT30;59249;59.736;30.568;2022-10-15T07:03:50;10.91;80.56
71128;SHT30;59249;59.736;30.568;2022-10-15T07:06:19;10.85;80.51
71128;SHT30;59249;59.736;30.568;2022-10-15T07:08:52;10.76;80.48
71128;SHT30;59249;59.736;30.568;2022-10-15T07:11:22;10.84;80.72
71128;SHT30;59249;59.736;30.568;2022-10-15T07:13:51;10.84;80.73
71128;SHT30;59249;59.736;30.568;2022-10-15T07:16:20;10.87;80.51
71128;SHT30;59249;59.736;30.568;2022-10-15T07:18:50;10.92;80.37
71128;SHT30;59249;59.736;30.568;2022-10-15T07:21:19;11.07;80.24
71128;SHT30;59249;59.736;30.568;2022-10-15T07:23:48;11.02;80.13
71128;SHT30;59249;59.736;30.568;2022-10-15T07:26:17;11.06;79.95
71128;SHT30;59249;59.736;30.568;2022-10-15T07:28:46;10.96;80.05
71128;SHT30;59249;59.736;30.568;2022-10-15T07:31:15;11.04;79.82
71128;SHT30;59249;59.736;30.568;2022-10-15T07:33:43;11.05;79.83
71128;SHT30;59249;59.736;30.568;2022-10-15T07:36:14;11.15;79.84
71128;SHT30;59249;59.736;30.568;2022-10-15T07:38:43;11.28;79.84
71128;SHT30;59249;59.736;30.568;2022-10-15T07:41:12;11.42;79.86
71128;SHT30;59249;59.736;30.568;2022-10-15T07:43:44;11.54;79.50
71128;SHT30;59249;59.736;30.568;2022-10-15T07:46:13;11.62;79.50
71128;SHT30;59249;59.736;30.568;2022-10-15T07:48:42;11.72;79.59
71128;SHT30;59249;59.736;30.568;2022-10-15T07:51:11;11.73;78.97
71128;SHT30;59249;59.736;30.568;2022-10-15T07:53:42;11.75;79.06
71128;SHT30;59249;59.736;30.568;2022-10-15T07:56:13;11.77;79.13
71128;SHT30;59249;59.736;30.568;2022-10-15T07:58:42;11.89;78.71
71128;SHT30;59249;59.736;30.568;2022-10-15T08:01:19;11.91;78.82
71128;SHT30;59249;59.736;30.568;2022-10-15T08:03:48;12.01;78.68
71128;SHT30;59249;59.736;30.568;2022-10-15T08:06:18;12.07;78.54
71128;SHT30;59249;59.736;30.568;2022-10-15T08:08:48;12.13;78.39
71128;SHT30;59249;59.736;30.568;2022-10-15T08:11:17;12.23;78.44
71128;SHT30;59249;59.736;30.568;2022-10-15T08:13:45;12.36;77.99
71128;SHT30;59249;59.736;30.568;2022-10-15T08:16:16;12.34;77.77
71128;SHT30;59249;59.736;30.568;2022-10-15T08:18:57;12.36;77.67
71128;SHT30;59249;59.736;30.568;2022-10-15T08:21:26;12.36;77.72
71128;SHT30;59249;59.736;30.568;2022-10-15T08:23:56;12.45;77.73
71128;SHT30;59249;59.736;30.568;2022-10-15T08:26:33;12.32;77.49
71128;SHT30;59249;59.736;30.568;2022-10-15T08:29:02;12.30;77.55
71128;SHT30;59249;59.736;30.568;2022-10-15T08:31:31;12.34;77.38
71128;SHT30;59249;59.736;30.568;2022-10-15T08:34:00;12.38;77.57
71128;SHT30;59249;59.736;30.568;2022-10-15T08:36:29;12.47;77.61
71128;SHT30;59249;59.736;30.568;2022-10-15T08:38:59;12.50;77.66
71128;SHT30;59249;59.736;30.568;2022-10-15T08:41:36;12.68;77.63
71128;SHT30;59249;59.736;30.568;2022-10-15T08:44:11;12.83;77.31
71128;SHT30;59249;59.736;30.568;2022-10-15T08:46:48;12.95;77.13
71128;SHT30;59249;59.736;30.568;2022-10-15T08:49:30;13.12;76.69
71128;SHT30;59249;59.736;30.568;2022-10-15T08:52:15;13.27;76.44
71128;SHT30;59249;59.736;30.568;2022-10-15T08:54:49;13.34;76.06
71128;SHT30;59249;59.736;30.568;2022-10-15T08:57:37;13.32;75.46
71128;SHT30;59249;59.736;30.568;2022-10-15T09:00:15;13.31;75.47
71128;SHT30;59249;59.736;30.568;2022-10-15T09:02:55;13.43;75.51
71128;SHT30;59249;59.736;30.568;2022-10-15T09:05:35;13.48;75.28
71128;SHT30;59249;59.736;30.568;2022-10-15T09:08:17;13.53;75.27
71128;SHT30;59249;59.736;30.568;2022-10-15T09:10:55;13.66;75.20
71128;SHT30;59249;59.736;30.568;2022-10-15T09:13:27;13.72;74.44
71128;SHT30;59249;59.736;30.568;2022-10-15T09:16:04;13.78;73.74
71128;SHT30;59249;59.736;30.568;2022-10-15T09:18:37;13.91;74.00
71128;SHT30;59249;59.736;30.568;2022-10-15T09:21:10;13.90;73.24
71128;SHT30;59249;59.736;30.568;2022-10-15T09:23:40;13.95;73.79
71128;SHT30;59249;59.736;30.568;2022-10-15T09:26:24;13.97;73.06
71128;SHT30;59249;59.736;30.568;2022-10-15T09:29:02;13.97;73.56
71128;SHT30;59249;59.736;30.568;2022-10-15T09:31:41;13.92;73.11
71128;SHT30;59249;59.736;30.568;2022-10-15T09:34:18;13.74;73.12
71128;SHT30;59249;59.736;30.568;2022-10-15T09:36:54;13.66;73.15
71128;SHT30;59249;59.736;30.568;2022-10-15T09:39:46;13.66;73.64
71128;SHT30;59249;59.736;30.568;2022-10-15T09:42:28;13.54;74.08
71128;SHT30;59249;59.736;30.568;2022-10-15T09:45:03;13.53;73.89
71128;SHT30;59249;59.736;30.568;2022-10-15T09:47:35;13.48;73.72
71128;SHT30;59249;59.736;30.568;2022-10-15T09:50:09;13.46;74.07
71128;SHT30;59249;59.736;30.568;2022-10-15T09:52:55;13.45;74.10
71128;SHT30;59249;59.736;30.568;2022-10-15T09:55:40;13.50;74.38
71128;SHT30;59249;59.736;30.568;2022-10-15T09:58:16;13.51;74.24
71128;SHT30;59249;59.736;30.568;2022-10-15T10:00:59;13.45;74.49
71128;SHT30;59249;59.736;30.568;2022-10-15T10:03:35;13.48;74.36
71128;SHT30;59249;59.736;30.568;2022-10-15T10:06:08;13.50;74.59
71128;SHT30;59249;59.736;30.568;2022-10-15T10:08:51;13.50;74.41
71128;SHT30;59249;59.736;30.568;2022-10-15T10:11:25;13.57;74.45
71128;SHT30;59249;59.736;30.568;2022-10-15T10:13:58;13.64;74.19
71128;SHT30;59249;59.736;30.568;2022-10-15T10:16:28;13.64;73.64
71128;SHT30;59249;59.736;30.568;2022-10-15T10:19:05;13.72;73.71
71128;SHT30;59249;59.736;30.568;2022-10-15T10:21:41;13.81;73.86
71128;SHT30;59249;59.736;30.568;2022-10-15T10:24:23;13.89;73.67
71128;SHT30;59249;59.736;30.568;2022-10-15T10:26:55;13.96;73.79
71128;SHT30;59249;59.736;30.568;2022-10-15T10:29:29;14.01;73.44
71128;SHT30;59249;59.736;30.568;2022-10-15T10:32:11;13.97;73.05
71128;SHT30;59249;59.736;30.568;2022-10-15T10:34:46;13.99;73.46
71128;SHT30;59249;59.736;30.568;2022-10-15T10:37:20;14.06;73.24
71128;SHT30;59249;59.736;30.568;2022-10-15T10:39:56;14.10;73.34
71128;SHT30;59249;59.736;30.568;2022-10-15T10:42:36;14.19;72.95
71128;SHT30;59249;59.736;30.568;2022-10-15T10:45:22;14.24;73.03
71128;SHT30;59249;59.736;30.568;2022-10-15T10:47:53;14.26;72.90
71128;SHT30;59249;59.736;30.568;2022-10-15T10:50:33;14.29;72.70
71128;SHT30;59249;59.736;30.568;2022-10-15T10:53:21;14.25;72.40
71128;SHT30;59249;59.736;30.568;2022-10-15T10:55:53;14.39;72.73
71128;SHT30;59249;59.736;30.568;2022-10-15T10:58:28;14.47;72.71
71128;SHT30;59249;59.736;30.568;2022-10-15T11:01:01;14.44;72.50
71128;SHT30;59249;59.736;30.568;2022-10-15T11:03:36;14.41;72.66
71128;SHT30;59249;59.736;30.568;2022-10-15T11:06:35;14.46;72.51
71128;SHT30;59249;59.736;30.568;2022-10-15T11:09:21;14.50;72.56
71128;SHT30;59249;59.736;30.568;2022-10-15T11:12:12;14.48;72.40
71128;SHT30;59249;59.736;30.568;2022-10-15T11:14:51;14.48;72.08
71128;SHT30;59249;59.736;30.568;2022-10-15T11:17:41;14.53;72.41
71128;SHT30;59249;59.736;30.568;2022-10-15T11:20:30;14.50;72.56
71128;SHT30;59249;59.736;30.568;2022-10-15T11:23:36;14.32;72.36
71128;SHT30;59249;59.736;30.568;2022-10-15T11:26:25;14.16;72.66
71128;SHT30;59249;59.736;30.568;2022-10-15T11:29:32;14.08;72.93
71128;SHT30;59249;59.736;30.568;2022-10-15T11:32:19;13.96;73.20
71128;SHT30;59249;59.736;30.568;2022-10-15T11:35:16;13.83;73.46
71128;SHT30;59249;59.736;30.568;2022-10-15T11:38:22;13.78;73.67
71128;SHT30;59249;59.736;30.568;2022-10-15T11:41:20;13.72;74.16
71128;SHT30;59249;59.736;30.568;2022-10-15T11:44:25;13.74;74.02
71128;SHT30;59249;59.736;30.568;2022-10-15T11:47:17;13.75;74.04
71128;SHT30;59249;59.736;30.568;2022-10-15T11:50:12;13.93;73.91
71128;SHT30;59249;59.736;30.568;2022-10-15T11:53:14;14.20;73.30
71128;SHT30;59249;59.736;30.568;2022-10-15T11:55:53;14.48;72.80
71128;SHT30;59249;59.736;30.568;2022-10-15T11:58:31;14.56;72.12
71128;SHT30;59249;59.736;30.568;2022-10-15T12:01:08;14.55;71.81
71128;SHT30;59249;59.736;30.568;2022-10-15T12:03:50;14.57;71.54
71128;SHT30;59249;59.736;30.568;2022-10-15T12:06:29;14.58;71.32
71128;SHT30;59249;59.736;30.568;2022-10-15T12:09:02;14.60;71.62
71128;SHT30;59249;59.736;30.568;2022-10-15T12:11:44;14.59;71.46
71128;SHT30;59249;59.736;30.568;2022-10-15T12:14:26;14.56;71.60
71128;SHT30;59249;59.736;30.568;2022-10-15T12:17:05;14.42;72.00
71128;SHT30;59249;59.736;30.568;2022-10-15T12:19:48;14.43;72.19
71128;SHT30;59249;59.736;30.568;2022-10-15T12:22:34;14.39;72.20
71128;SHT30;59249;59.736;30.568;2022-10-15T12:25:47;14.38;72.31
71128;SHT30;59249;59.736;30.568;2022-10-15T12:28:20;14.35;72.17
71128;SHT30;59249;59.736;30.568;2022-10-15T12:31:02;14.47;72.33
71128;SHT30;59249;59.736;30.568;2022-10-15T12:33:35;14.51;72.10
71128;SHT30;59249;59.736;30.568;2022-10-15T12:36:19;14.55;72.07
71128;SHT30;59249;59.736;30.568;2022-10-15T12:38:58;14.57;72.40
71128;SHT30;59249;59.736;30.568;2022-10-15T12:41:45;14.68;72.40
71128;SHT30;59249;59.736;30.568;2022-10-15T12:44:20;14.76;71.80
71128;SHT30;59249;59.736;30.568;2022-10-15T12:46:51;14.69;71.61
71128;SHT30;59249;59.736;30.568;2022-10-15T12:49:45;14.65;71.54
71128;SHT30;59249;59.736;30.568;2022-10-15T12:52:53;14.55;71.36
71128;SHT30;59249;59.736;30.568;2022-10-15T12:55:31;14.49;71.63
71128;SHT30;59249;59.736;30.568;2022-10-15T12:58:04;14.46;71.57
71128;SHT30;59249;59.736;30.568;2022-10-15T13:00:41;14.41;71.94
71128;SHT30;59249;59.736;30.568;2022-10-15T13:03:32;14.32;71.96
71128;SHT30;59249;59.736;30.568;2022-10-15T13:09:31;14.22;72.31
71128;SHT30;59249;59.736;30.568;2022-10-15T13:12:03;14.24;72.25
71128;SHT30;59249;59.736;30.568;2022-10-15T13:14:37;14.24;72.50
71128;SHT30;59249;59.736;30.568;2022-10-15T13:17:16;14.27;72.76
71128;SHT30;59249;59.736;30.568;2022-10-15T13:19:53;14.24;72.67
71128;SHT30;59249;59.736;30.568;2022-10-15T13:22:25;14.30;72.87
71128;SHT30;59249;59.736;30.568;2022-10-15T13:24:55;14.23;73.13
71128;SHT30;59249;59.736;30.568;2022-10-15T13:27:29;14.22;72.97
71128;SHT30;59249;59.736;30.568;2022-10-15T13:30:00;14.27;73.03
71128;SHT30;59249;59.736;30.568;2022-10-15T13:32:37;14.20;73.15
71128;SHT30;59249;59.736;30.568;2022-10-15T13:35:14;14.18;73.41
71128;SHT30;59249;59.736;30.568;2022-10-15T13:37:45;14.14;73.72
71128;SHT30;59249;59.736;30.568;2022-10-15T13:40:20;14.16;73.60
71128;SHT30;59249;59.736;30.568;2022-10-15T13:43:02;14.11;73.67
71128;SHT30;59249;59.736;30.568;2022-10-15T13:45:33;14.09;73.51
71128;SHT30;59249;59.736;30.568;2022-10-15T13:48:11;14.04;73.63
71128;SHT30;59249;59.736;30.568;2022-10-15T13:50:41;14.00;73.75
71128;SHT30;59249;59.736;30.568;2022-10-15T13:53:18;13.94;74.10
71128;SHT30;59249;59.736;30.568;2022-10-15T13:55:54;13.93;74.00
71128;SHT30;59249;59.736;30.568;2022-10-15T13:58:27;13.87;74.38
71128;SHT30;59249;59.736;30.568;2022-10-15T14:01:01;13.84;74.64
71128;SHT30;59249;59.736;30.568;2022-10-15T14:03:32;13.78;74.45
71128;SHT30;59249;59.736;30.568;2022-10-15T14:06:14;13.78;74.68
71128;SHT30;59249;59.736;30.568;2022-10-15T14:08:44;13.69;74.95
71128;SHT30;59249;59.736;30.568;2022-10-15T14:11:14;13.70;74.94
71128;SHT30;59249;59.736;30.568;2022-10-15T14:13:47;13.67;75.22
71128;SHT30;59249;59.736;30.568;2022-10-15T14:16:22;13.60;75.29
71128;SHT30;59249;59.736;30.568;2022-10-15T14:18:56;13.57;75.46
71128;SHT30;59249;59.736;30.568;2022-10-15T14:21:27;13.51;75.67
71128;SHT30;59249;59.736;30.568;2022-10-15T14:24:05;13.53;75.68
71128;SHT30;59249;59.736;30.568;2022-10-15T14:26:35;13.49;75.94
71128;SHT30;59249;59.736;30.568;2022-10-15T14:29:20;13.45;76.00
71128;SHT30;59249;59.736;30.568;2022-10-15T14:31:51;13.45;75.97
71128;SHT30;59249;59.736;30.568;2022-10-15T14:34:30;13.45;76.00
71128;SHT30;59249;59.736;30.568;2022-10-15T14:37:38;13.41;76.01
71128;SHT30;59249;59.736;30.568;2022-10-15T14:40:18;13.43;76.08
71128;SHT30;59249;59.736;30.568;2022-10-15T14:43:02;13.38;75.97
71128;SHT30;59249;59.736;30.568;2022-10-15T14:45:41;13.27;76.55
71128;SHT30;59249;59.736;30.568;2022-10-15T14:48:17;13.32;76.43
71128;SHT30;59249;59.736;30.568;2022-10-15T14:50:46;13.30;76.60
71128;SHT30;59249;59.736;30.568;2022-10-15T14:53:19;13.27;76.43
71128;SHT30;59249;59.736;30.568;2022-10-15T14:55:54;13.25;76.45
71128;SHT30;59249;59.736;30.568;2022-10-15T14:58:27;13.25;76.66
71128;SHT30;59249;59.736;30.568;2022-10-15T15:01:03;13.22;76.63
71128;SHT30;59249;59.736;30.568;2022-10-15T15:03:40;13.21;76.84
71128;SHT30;59249;59.736;30.568;2022-10-15T15:06:13;13.21;76.84
71128;SHT30;59249;59.736;30.568;2022-10-15T15:08:43;13.16;76.83
71128;SHT30;59249;59.736;30.568;2022-10-15T15:11:17;13.17;76.95
71128;SHT30;59249;59.736;30.568;2022-10-15T15:13:47;13.17;76.89
71128;SHT30;59249;59.736;30.568;2022-10-15T15:16:20;13.15;76.79
71128;SHT30;59249;59.736;30.568;2022-10-15T15:18:49;13.14;76.95
71128;SHT30;59249;59.736;30.568;2022-10-15T15:21:21;13.15;76.95
71128;SHT30;59249;59.736;30.568;2022-10-15T15:23:51;13.11;76.96
71128;SHT30;59249;59.736;30.568;2022-10-15T15:26:21;13.15;76.85
71128;SHT30;59249;59.736;30.568;2022-10-15T15:28:51;13.14;76.99
71128;SHT30;59249;59.736;30.568;2022-10-15T15:31:22;13.16;76.77
71128;SHT30;59249;59.736;30.568;2022-10-15T15:33:51;13.11;76.85
71128;SHT30;59249;59.736;30.568;2022-10-15T15:36:20;13.08;76.75
71128;SHT30;59249;59.736;30.568;2022-10-15T15:38:50;13.09;76.93
71128;SHT30;59249;59.736;30.568;2022-10-15T15:41:21;13.09;76.86
71128;SHT30;59249;59.736;30.568;2022-10-15T15:43:51;13.05;76.66
71128;SHT30;59249;59.736;30.568;2022-10-15T15:46:26;13.08;76.69
71128;SHT30;59249;59.736;30.568;2022-10-15T15:48:57;13.06;76.63
71128;SHT30;59249;59.736;30.568;2022-10-15T15:51:28;13.05;76.64
71128;SHT30;59249;59.736;30.568;2022-10-15T15:53:58;12.97;76.54
71128;SHT30;59249;59.736;30.568;2022-10-15T15:56:33;13.01;76.59
71128;SHT30;59249;59.736;30.568;2022-10-15T15:59:03;12.97;76.55
71128;SHT30;59249;59.736;30.568;2022-10-15T16:01:34;12.97;76.61
71128;SHT30;59249;59.736;30.568;2022-10-15T16:04:04;12.96;76.41
71128;SHT30;59249;59.736;30.568;2022-10-15T16:06:37;12.92;76.52
71128;SHT30;59249;59.736;30.568;2022-10-15T16:09:06;12.92;76.51
71128;SHT30;59249;59.736;30.568;2022-10-15T16:11:39;12.89;76.53
71128;SHT30;59249;59.736;30.568;2022-10-15T16:14:08;12.90;76.46
71128;SHT30;59249;59.736;30.568;2022-10-15T16:16:39;12.91;76.67
71128;SHT30;59249;59.736;30.568;2022-10-15T16:19:09;12.89;76.53